Current Weather

Tri-Township

Savanna, Illinois (KSFY)

Report from: Monday, March 4, 2024 6:59 PM CST
Current time: Monday, March 4, 2024 7:19 PM CST

Nearby weather – Weather history – Daily summaries
Weather forecast

Temperature7.0°C (44.6°F)
Wind chill3.6°C (38.4°F)
Dew point4.0°C (39.2°F)
Winds 11 kts (5.7 m/s, 12.7 mph) North (360°)
Visibility10 mi. (16.1 km)
Clouds Scattered clouds 4,500 ft. (1,372 m)
Ceiling: Broken clouds 5,000 ft. (1,524 m)
Altimeter29.83 in.Hg (1010 mB)
Relative humidity81 %
Density altitude-738 ft. (-225 m)
Remarks Fully automated report
Automated weather observing station with precipitation discriminator
Lightning observed
Distant southwest
Flight conditions Visual Meteorological Conditions
Raw dataKSFY 050059Z AUTO 36011KT 10SM SCT045 BKN050 07/04 A2983 RMK AO2 LTG DSNT SW
An error has occurred. This application may no longer respond until reloaded. Reload 🗙